Houston, Texas
Traffic Map
Current Weather Conditions
Houston, Texas
Broken Clouds
Broken Clouds
78°
Feels Like: 81°
Wind Chill: 78° Ceiling: 25000
Heat Index: 81° Visibility: 10mi
Dew Point: 75° Wind: 0mph
Humidity: 90% Direction: ° ()
Pressure: 30.09in Gusts: 0mph
Raw Report DataKIAH 270553Z 00000KT 10SM BKN250 26/24 A3009 RMK AO2 SLP187 T02560239 10311 20256 403390244 50016
Traffic Incident Summary
Active as of:
Severity:
Category:
InformationThere was an issue retrieving the traffic information for this location. Please try a different location or try again shortly.
Advertisements
Track Severe Weather on mobile